Time;durP1;ratioP1;P1;durP2;ratioP2;P2;SDS_P1;SDS_P2;PMS_P1;PMS_P2;Temp;Humidity;BMP_temperature;BMP_pressure;BME280_temperature;BME280_humidity;BME280_pressure;Samples;Min_cycle;Max_cycle;Signal;HPM_P1;HPM_P2
2020/12/06 00:00:11;;;;;;;10.25;6.40;;;0.70;69.30;;;;;;5032702;28;20117;-60
2020/12/06 00:02:37;;;;;;;9.00;5.53;;;0.70;68.90;;;;;;5031579;28;20030;-62
2020/12/06 00:05:09;;;;;;;12.20;6.97;;;0.60;68.60;;;;;;5033267;28;20040;-61
2020/12/06 00:07:39;;;;;;;11.57;6.65;;;0.60;68.80;;;;;;5024492;28;20438;-62
2020/12/06 00:10:10;;;;;;;9.13;5.97;;;0.60;68.50;;;;;;5031026;28;20035;-62
2020/12/06 00:12:37;;;;;;;10.85;5.80;;;0.60;68.00;;;;;;5025482;28;20034;-62
2020/12/06 00:15:08;;;;;;;8.63;5.35;;;0.60;67.80;;;;;;5027108;28;20489;-62
2020/12/06 00:17:34;;;;;;;9.05;5.93;;;0.60;68.40;;;;;;5033087;28;20100;-62
2020/12/06 00:19:59;;;;;;;9.50;5.10;;;0.60;68.80;;;;;;5032640;28;20108;-61
2020/12/06 00:22:27;;;;;;;8.10;5.15;;;0.60;69.20;;;;;;5032002;28;20075;-60
2020/12/06 00:24:52;;;;;;;7.50;5.07;;;0.60;69.40;;;;;;5032454;28;20485;-61
2020/12/06 00:27:18;;;;;;;8.13;5.75;;;0.60;69.50;;;;;;5032793;28;20073;-61
2020/12/06 00:29:44;;;;;;;9.38;5.35;;;0.60;69.00;;;;;;5033006;28;20021;-62
2020/12/06 00:32:09;;;;;;;11.00;5.93;;;0.60;69.00;;;;;;5033152;28;20101;-61
2020/12/06 00:34:35;;;;;;;9.90;5.45;;;0.60;69.20;;;;;;5032449;28;20134;-62
2020/12/06 00:37:01;;;;;;;9.23;5.22;;;0.50;68.90;;;;;;5032809;28;20381;-60
2020/12/06 00:39:26;;;;;;;9.45;5.40;;;0.50;68.60;;;;;;5031645;28;20032;-61
2020/12/06 00:41:52;;;;;;;11.65;6.03;;;0.50;68.90;;;;;;5032678;28;20022;-60
2020/12/06 00:44:18;;;;;;;11.35;5.90;;;0.40;68.70;;;;;;5032739;28;20018;-62
2020/12/06 00:46:44;;;;;;;8.98;5.80;;;0.40;68.70;;;;;;5032248;28;20029;-60
2020/12/06 00:49:10;;;;;;;9.57;5.65;;;0.40;68.90;;;;;;5032387;28;20432;-61
2020/12/06 00:51:35;;;;;;;7.88;4.80;;;0.30;68.40;;;;;;5035805;28;20396;-62
2020/12/06 00:54:01;;;;;;;7.70;4.88;;;0.20;68.40;;;;;;5036046;28;20033;-62
2020/12/06 00:56:27;;;;;;;9.50;5.90;;;0.20;68.40;;;;;;5036322;28;20033;-62
2020/12/06 00:58:52;;;;;;;13.15;5.82;;;0.20;68.60;;;;;;5035979;28;20053;-62
2020/12/06 01:01:19;;;;;;;9.20;5.38;;;0.20;68.00;;;;;;5036224;28;20034;-62
2020/12/06 01:03:45;;;;;;;6.90;5.50;;;0.10;68.00;;;;;;5035627;28;20527;-62
2020/12/06 01:06:16;;;;;;;11.20;5.45;;;0.10;68.40;;;;;;5036364;28;20021;-60
2020/12/06 01:08:42;;;;;;;8.02;5.40;;;0.10;68.00;;;;;;5035768;28;20100;-61
2020/12/06 01:11:10;;;;;;;9.57;5.35;;;0.00;68.10;;;;;;5035456;28;20029;-60
2020/12/06 01:13:36;;;;;;;10.88;6.35;;;0.00;68.70;;;;;;5035465;28;20029;-62
2020/12/06 01:16:02;;;;;;;9.30;6.20;;;0.00;67.60;;;;;;5035700;28;20153;-60
2020/12/06 01:18:27;;;;;;;10.43;6.28;;;-0.10;67.80;;;;;;5035601;28;20369;-62
2020/12/06 01:20:53;;;;;;;9.35;6.25;;;-0.10;68.20;;;;;;5035123;28;20108;-60
2020/12/06 01:23:19;;;;;;;9.10;6.30;;;-0.10;68.40;;;;;;5027865;28;20033;-62
2020/12/06 01:25:45;;;;;;;10.90;5.97;;;-0.10;68.20;;;;;;5035294;28;20088;-61
2020/12/06 01:28:11;;;;;;;9.07;5.65;;;-0.20;68.40;;;;;;5035565;28;20474;-62
2020/12/06 01:30:36;;;;;;;9.27;6.20;;;-0.20;68.20;;;;;;5035601;28;20028;-62
2020/12/06 01:33:02;;;;;;;8.07;5.45;;;-0.20;68.20;;;;;;5035309;28;20120;-62
2020/12/06 01:35:28;;;;;;;8.70;5.25;;;-0.20;68.40;;;;;;5035555;28;20026;-61
2020/12/06 01:37:53;;;;;;;10.55;5.53;;;-0.20;68.10;;;;;;5035205;28;20033;-61
2020/12/06 01:40:19;;;;;;;8.00;5.80;;;-0.20;68.10;;;;;;5035352;28;20119;-61
2020/12/06 01:42:45;;;;;;;8.10;5.45;;;-0.20;68.10;;;;;;5035665;28;20036;-62
2020/12/06 01:45:10;;;;;;;8.23;5.18;;;-0.20;68.00;;;;;;5034881;28;20034;-61
2020/12/06 01:47:36;;;;;;;8.95;5.57;;;-0.20;67.40;;;;;;5035164;28;20470;-61
2020/12/06 01:50:03;;;;;;;8.68;5.47;;;-0.20;67.70;;;;;;5035460;28;20022;-62
2020/12/06 01:52:29;;;;;;;10.13;5.07;;;-0.20;68.00;;;;;;5030312;28;20030;-62
2020/12/06 01:54:56;;;;;;;9.38;5.57;;;-0.20;67.70;;;;;;5034510;28;20060;-61
2020/12/06 01:57:22;;;;;;;9.75;6.15;;;-0.30;67.80;;;;;;5034987;28;20513;-61
2020/12/06 01:59:48;;;;;;;8.82;6.00;;;-0.30;67.90;;;;;;5034939;28;20108;-62
2020/12/06 02:02:15;;;;;;;10.15;5.47;;;-0.30;67.50;;;;;;5034315;28;20025;-62
2020/12/06 02:04:41;;;;;;;11.27;6.32;;;-0.30;67.60;;;;;;5035078;28;20421;-62
2020/12/06 02:07:07;;;;;;;9.63;6.20;;;-0.30;67.30;;;;;;5032160;28;20025;-62
2020/12/06 02:09:32;;;;;;;8.38;5.55;;;-0.30;67.00;;;;;;5034895;28;20357;-61
2020/12/06 02:11:59;;;;;;;9.95;6.35;;;-0.40;67.20;;;;;;5033019;28;20362;-62
2020/12/06 02:14:25;;;;;;;8.30;5.85;;;-0.40;66.80;;;;;;5034532;28;20045;-61
2020/12/06 02:16:54;;;;;;;8.40;5.97;;;-0.40;67.30;;;;;;5034389;28;20072;-62
2020/12/06 02:19:20;;;;;;;11.55;5.60;;;-0.50;67.00;;;;;;5034665;28;20109;-61
2020/12/06 02:21:46;;;;;;;8.32;5.28;;;-0.50;68.10;;;;;;5034126;28;20108;-62
2020/12/06 02:24:14;;;;;;;7.68;5.15;;;-0.50;67.70;;;;;;5033333;28;20025;-62
2020/12/06 02:26:42;;;;;;;9.65;5.82;;;-0.50;67.70;;;;;;5034049;28;20029;-61
2020/12/06 02:29:08;;;;;;;8.35;5.90;;;-0.40;68.00;;;;;;5034729;28;20025;-61
2020/12/06 02:31:34;;;;;;;9.63;5.85;;;-0.50;67.80;;;;;;5034499;28;20109;-62
2020/12/06 02:34:00;;;;;;;8.15;5.22;;;-0.40;68.20;;;;;;5033898;28;20040;-61
2020/12/06 02:36:26;;;;;;;8.75;5.50;;;-0.40;68.30;;;;;;5033360;28;20033;-59
2020/12/06 02:38:51;;;;;;;10.75;5.20;;;-0.40;67.90;;;;;;5034259;28;20044;-60
2020/12/06 02:41:17;;;;;;;10.20;5.60;;;-0.40;67.90;;;;;;5034054;28;20036;-62
2020/12/06 02:43:43;;;;;;;10.32;5.13;;;-0.40;67.80;;;;;;5034652;28;20025;-60
2020/12/06 02:46:09;;;;;;;12.30;6.65;;;-0.40;67.60;;;;;;5019785;28;20034;-62
2020/12/06 02:48:35;;;;;;;9.40;6.50;;;-0.40;67.40;;;;;;5033648;28;20036;-60
2020/12/06 02:51:01;;;;;;;9.75;5.15;;;-0.40;67.50;;;;;;5033906;28;20021;-61
2020/12/06 02:53:27;;;;;;;14.05;6.35;;;-0.40;67.70;;;;;;5033808;28;20144;-62
2020/12/06 02:55:53;;;;;;;8.20;5.78;;;-0.40;67.90;;;;;;5033605;28;20040;-62
2020/12/06 02:58:18;;;;;;;9.90;6.05;;;-0.50;67.30;;;;;;5033970;28;20021;-62
2020/12/06 03:00:44;;;;;;;12.40;5.85;;;-0.50;67.60;;;;;;5034013;28;20033;-62
2020/12/06 03:03:10;;;;;;;7.85;5.43;;;-0.50;67.20;;;;;;5029820;28;20017;-60
2020/12/06 03:05:35;;;;;;;8.07;5.13;;;-0.50;67.50;;;;;;5034474;28;20063;-62
2020/12/06 03:08:01;;;;;;;8.35;4.72;;;-0.50;67.80;;;;;;5030950;28;20079;-60
2020/12/06 03:10:27;;;;;;;7.43;5.35;;;-0.50;67.50;;;;;;5015258;28;20030;-61
2020/12/06 03:12:52;;;;;;;10.18;6.03;;;-0.50;67.60;;;;;;5028546;28;20021;-61
2020/12/06 03:15:18;;;;;;;9.25;5.15;;;-0.50;67.20;;;;;;5033827;28;20036;-62
2020/12/06 03:17:44;;;;;;;8.43;5.18;;;-0.50;67.30;;;;;;5034559;28;20032;-62
2020/12/06 03:20:09;;;;;;;8.80;5.10;;;-0.50;67.60;;;;;;5023336;28;20107;-62
2020/12/06 03:22:35;;;;;;;13.48;5.72;;;-0.50;67.30;;;;;;5034184;28;20373;-62
2020/12/06 03:25:01;;;;;;;8.85;4.97;;;-0.50;66.70;;;;;;5033447;28;20025;-61
2020/12/06 03:27:27;;;;;;;8.10;5.18;;;-0.50;66.80;;;;;;5034174;28;20048;-62
2020/12/06 03:29:54;;;;;;;12.27;5.57;;;-0.50;66.70;;;;;;5032957;28;20026;-62
2020/12/06 03:32:20;;;;;;;9.23;5.63;;;-0.60;66.60;;;;;;5033690;28;20108;-62
2020/12/06 03:34:46;;;;;;;7.70;5.22;;;-0.60;66.60;;;;;;5034115;28;20060;-60
2020/12/06 03:37:12;;;;;;;7.72;5.03;;;-0.60;66.40;;;;;;5030760;28;20053;-61
2020/12/06 03:39:37;;;;;;;8.77;5.22;;;-0.60;66.60;;;;;;5022280;28;20028;-61
2020/12/06 03:42:03;;;;;;;7.40;5.60;;;-0.70;66.00;;;;;;5033362;28;20472;-62
2020/12/06 03:44:29;;;;;;;8.73;5.13;;;-0.70;66.30;;;;;;5033146;28;20365;-61
2020/12/06 03:46:54;;;;;;;9.05;4.80;;;-0.70;66.30;;;;;;5030206;28;20021;-61
2020/12/06 03:49:20;;;;;;;7.35;5.45;;;-0.70;66.10;;;;;;5033418;28;20018;-60
2020/12/06 03:51:46;;;;;;;9.40;5.13;;;-0.70;65.70;;;;;;5033539;28;20040;-62
2020/12/06 03:54:11;;;;;;;12.65;5.75;;;-0.80;65.60;;;;;;5024405;28;20080;-62
2020/12/06 03:56:37;;;;;;;12.32;5.03;;;-0.80;65.50;;;;;;5033367;28;20025;-60
2020/12/06 03:59:03;;;;;;;10.88;5.50;;;-0.90;65.90;;;;;;5033687;28;20068;-61
2020/12/06 04:01:28;;;;;;;8.00;4.95;;;-0.90;66.10;;;;;;5033241;28;20029;-62
2020/12/06 04:03:54;;;;;;;9.73;5.63;;;-0.80;65.90;;;;;;5033136;28;20040;-60
2020/12/06 04:06:20;;;;;;;8.40;5.40;;;-0.80;65.80;;;;;;5033238;28;20021;-61
2020/12/06 04:08:45;;;;;;;9.57;5.22;;;-0.90;65.60;;;;;;5033595;28;20037;-62
2020/12/06 04:11:11;;;;;;;9.82;5.32;;;-0.90;65.80;;;;;;5033602;28;20311;-62
2020/12/06 04:13:37;;;;;;;10.68;5.03;;;-0.90;65.20;;;;;;5032830;28;20061;-61
2020/12/06 04:16:03;;;;;;;7.93;4.22;;;-0.90;65.20;;;;;;5033356;28;20022;-62
2020/12/06 04:18:28;;;;;;;8.02;5.00;;;-0.90;65.70;;;;;;5031949;28;20029;-61
2020/12/06 04:20:54;;;;;;;9.43;5.65;;;-0.90;65.50;;;;;;5033009;28;20036;-62
2020/12/06 04:23:20;;;;;;;8.38;5.03;;;-0.90;65.40;;;;;;5029406;28;20045;-61
2020/12/06 04:25:45;;;;;;;8.00;4.90;;;-0.90;65.40;;;;;;5026482;28;20418;-61
2020/12/06 04:28:11;;;;;;;9.55;5.45;;;-0.90;64.90;;;;;;5036662;28;20048;-61
2020/12/06 04:30:38;;;;;;;8.75;5.10;;;-0.90;64.60;;;;;;5036672;28;20454;-62
2020/12/06 04:33:03;;;;;;;9.18;5.03;;;-1.00;64.80;;;;;;5036856;28;20087;-61
2020/12/06 04:35:29;;;;;;;7.93;5.45;;;-1.10;65.40;;;;;;5036627;28;20025;-62
2020/12/06 04:37:55;;;;;;;7.43;4.88;;;-1.10;65.00;;;;;;5037450;28;20033;-61
2020/12/06 04:40:21;;;;;;;7.85;5.03;;;-1.10;65.40;;;;;;5036941;28;20026;-62
2020/12/06 04:42:47;;;;;;;9.70;5.78;;;-1.10;65.20;;;;;;5037273;28;20078;-62
2020/12/06 04:45:14;;;;;;;8.45;5.13;;;-1.10;64.90;;;;;;5027882;28;20424;-60
2020/12/06 04:47:59;;;;;;;7.13;4.55;;;-1.10;65.00;;;;;;5036674;28;20025;-61
2020/12/06 04:50:48;;;;;;;10.00;4.85;;;-1.10;65.70;;;;;;5037519;28;20056;-62
2020/12/06 04:53:18;;;;;;;10.30;4.93;;;-1.10;65.30;;;;;;5037434;28;20021;-62
2020/12/06 04:55:46;;;;;;;8.70;5.18;;;-1.10;65.10;;;;;;5036645;28;20042;-62
2020/12/06 04:58:17;;;;;;;7.15;5.28;;;-1.10;65.20;;;;;;5035804;28;20029;-62
2020/12/06 05:00:45;;;;;;;7.88;5.38;;;-1.10;65.30;;;;;;5037188;28;20037;-62
2020/12/06 05:03:12;;;;;;;7.40;4.97;;;-1.20;65.00;;;;;;5036866;28;20048;-62
2020/12/06 05:05:39;;;;;;;6.65;4.93;;;-1.20;66.00;;;;;;5037408;28;20032;-61
2020/12/06 05:08:10;;;;;;;8.80;5.25;;;-1.20;65.20;;;;;;5037407;28;20026;-61
2020/12/06 05:10:37;;;;;;;7.77;5.07;;;-1.20;65.50;;;;;;5036906;28;20064;-61
2020/12/06 05:13:04;;;;;;;8.38;5.25;;;-1.30;65.30;;;;;;5036396;28;20121;-60
2020/12/06 05:15:30;;;;;;;6.70;5.32;;;-1.20;65.60;;;;;;5037101;28;20162;-61
2020/12/06 05:17:57;;;;;;;8.52;5.25;;;-1.20;66.00;;;;;;5036148;28;20366;-61
2020/12/06 05:20:22;;;;;;;7.65;4.88;;;-1.20;65.30;;;;;;5036838;28;20113;-61
2020/12/06 05:22:48;;;;;;;8.48;4.90;;;-1.30;65.50;;;;;;5037238;28;20097;-62
2020/12/06 05:25:15;;;;;;;10.00;4.93;;;-1.30;66.00;;;;;;5036725;28;20025;-62
2020/12/06 05:27:41;;;;;;;7.45;4.43;;;-1.20;65.20;;;;;;5035708;28;20045;-60
2020/12/06 05:30:07;;;;;;;6.25;4.85;;;-1.30;65.50;;;;;;5036443;28;20107;-62
2020/12/06 05:32:33;;;;;;;7.15;4.70;;;-1.20;65.80;;;;;;5024520;28;20068;-61
2020/12/06 05:35:00;;;;;;;8.40;5.22;;;-1.20;65.90;;;;;;5035500;28;20029;-62
2020/12/06 05:37:26;;;;;;;9.60;5.80;;;-1.20;65.70;;;;;;5034710;28;20037;-63
2020/12/06 05:40:13;;;;;;;9.80;5.03;;;-1.20;65.40;;;;;;5036070;28;20555;-62
2020/12/06 05:42:41;;;;;;;9.65;5.10;;;-1.30;65.60;;;;;;5034565;28;20034;-63
2020/12/06 05:45:09;;;;;;;6.57;4.85;;;-1.30;65.50;;;;;;5035955;28;20116;-62
2020/12/06 05:47:35;;;;;;;8.88;5.45;;;-1.30;65.70;;;;;;5034393;28;20126;-62
2020/12/06 05:50:01;;;;;;;7.43;4.82;;;-1.30;66.20;;;;;;5034288;28;20484;-62
2020/12/06 05:52:31;;;;;;;8.25;5.03;;;-1.30;66.10;;;;;;5035237;28;20026;-62
2020/12/06 05:54:58;;;;;;;9.20;4.97;;;-1.30;65.80;;;;;;5026901;28;20037;-61
2020/12/06 05:57:29;;;;;;;8.35;5.18;;;-1.30;65.40;;;;;;5035704;28;20033;-62
2020/12/06 05:59:56;;;;;;;6.70;4.90;;;-1.30;65.60;;;;;;5035000;28;20037;-62
2020/12/06 06:02:23;;;;;;;8.48;4.78;;;-1.30;65.50;;;;;;5035843;28;20505;-62
2020/12/06 06:04:50;;;;;;;7.15;4.68;;;-1.30;65.70;;;;;;5035396;28;20388;-62
2020/12/06 06:07:21;;;;;;;6.68;5.07;;;-1.30;65.50;;;;;;5035464;28;20096;-62
2020/12/06 06:09:53;;;;;;;5.93;4.60;;;-1.30;65.30;;;;;;5021666;28;20022;-62
2020/12/06 06:12:25;;;;;;;7.53;5.30;;;-1.30;65.60;;;;;;5034954;28;20086;-62
2020/12/06 06:14:53;;;;;;;7.43;5.40;;;-1.20;65.70;;;;;;5034365;28;20753;-63
2020/12/06 06:17:22;;;;;;;7.38;4.80;;;-1.20;65.80;;;;;;5035482;28;20025;-63
2020/12/06 06:19:48;;;;;;;6.65;4.55;;;-1.20;65.90;;;;;;5034954;28;20056;-63
2020/12/06 06:22:16;;;;;;;8.93;5.45;;;-1.20;66.30;;;;;;5035852;28;20013;-63
2020/12/06 06:24:42;;;;;;;10.52;5.32;;;-1.10;66.40;;;;;;5035157;28;20353;-62
2020/12/06 06:27:08;;;;;;;8.73;5.45;;;-1.10;66.30;;;;;;5035096;28;20041;-62
2020/12/06 06:29:36;;;;;;;8.13;5.00;;;-1.10;65.70;;;;;;5034459;28;20429;-62
2020/12/06 06:32:03;;;;;;;8.52;5.32;;;-1.00;65.70;;;;;;5033827;28;20013;-63
2020/12/06 06:34:34;;;;;;;8.70;5.13;;;-1.00;66.10;;;;;;5035025;28;20021;-63
2020/12/06 06:37:00;;;;;;;7.45;4.70;;;-1.00;65.70;;;;;;5034459;28;20025;-63
2020/12/06 06:39:26;;;;;;;8.55;4.72;;;-1.00;65.70;;;;;;5031913;28;20032;-63
2020/12/06 06:41:59;;;;;;;8.95;5.38;;;-1.00;65.90;;;;;;5034516;28;20075;-62
2020/12/06 06:44:26;;;;;;;8.55;5.20;;;-1.00;66.00;;;;;;5034602;28;20040;-62
2020/12/06 06:46:52;;;;;;;6.15;4.45;;;-1.00;65.60;;;;;;5033923;28;20022;-63
2020/12/06 06:49:19;;;;;;;8.93;5.10;;;-1.00;65.90;;;;;;5018622;28;20391;-63
2020/12/06 06:51:54;;;;;;;8.93;5.70;;;-1.00;66.10;;;;;;5034992;28;20081;-63
2020/12/06 06:54:31;;;;;;;6.18;5.28;;;-1.00;66.20;;;;;;5034639;28;20045;-62
2020/12/06 06:56:58;;;;;;;6.50;4.68;;;-1.00;66.10;;;;;;5024148;28;20030;-63
2020/12/06 06:59:45;;;;;;;7.35;4.90;;;-1.00;66.30;;;;;;5031417;28;20018;-63
2020/12/06 07:02:32;;;;;;;8.45;4.60;;;-1.00;66.30;;;;;;5026247;28;20112;-63
2020/12/06 07:05:04;;;;;;;7.38;5.00;;;-1.00;65.80;;;;;;5017625;28;20026;-63
2020/12/06 07:07:51;;;;;;;9.05;4.70;;;-1.10;66.00;;;;;;5034401;28;20530;-63
2020/12/06 07:10:20;;;;;;;8.27;5.15;;;-1.10;66.60;;;;;;5025412;28;20052;-63
2020/12/06 07:12:45;;;;;;;9.23;5.55;;;-1.10;66.40;;;;;;5033682;28;20097;-63
2020/12/06 07:15:12;;;;;;;7.00;5.03;;;-1.20;65.80;;;;;;5033158;28;20108;-64
2020/12/06 07:17:39;;;;;;;8.52;5.63;;;-1.20;66.60;;;;;;5032417;28;20034;-63
2020/12/06 07:20:09;;;;;;;8.93;5.43;;;-1.20;66.40;;;;;;5028022;28;20061;-63
2020/12/06 07:22:35;;;;;;;8.90;5.78;;;-1.20;66.40;;;;;;5025890;28;20033;-63
2020/12/06 07:25:06;;;;;;;9.32;5.93;;;-1.20;66.70;;;;;;5033666;28;20402;-63
2020/12/06 07:27:33;;;;;;;9.27;5.20;;;-1.20;67.20;;;;;;5033247;28;20045;-63
2020/12/06 07:29:59;;;;;;;10.23;5.82;;;-1.20;66.60;;;;;;5032035;28;20425;-63
2020/12/06 07:32:25;;;;;;;7.47;4.75;;;-1.20;66.60;;;;;;5031819;28;20461;-62
2020/12/06 07:34:51;;;;;;;8.02;4.82;;;-1.20;66.50;;;;;;5032017;28;20063;-63
2020/12/06 07:37:17;;;;;;;6.68;4.88;;;-1.20;66.80;;;;;;5033651;28;20029;-63
2020/12/06 07:39:47;;;;;;;7.95;5.22;;;-1.10;66.90;;;;;;5033273;28;20033;-63
2020/12/06 07:42:24;;;;;;;10.20;5.75;;;-1.10;66.60;;;;;;5032696;28;20045;-63
2020/12/06 07:44:57;;;;;;;6.82;4.75;;;-1.00;65.80;;;;;;5033551;28;20017;-63
2020/12/06 07:47:24;;;;;;;7.45;4.60;;;-1.10;66.40;;;;;;5032297;28;20108;-62
2020/12/06 07:49:53;;;;;;;10.43;5.68;;;-1.00;66.10;;;;;;5030684;28;20055;-63
2020/12/06 07:52:28;;;;;;;6.72;5.13;;;-1.00;66.60;;;;;;5031725;28;20049;-63
2020/12/06 07:55:02;;;;;;;8.20;5.00;;;-1.00;65.80;;;;;;5024283;28;20018;-63
2020/12/06 07:57:56;;;;;;;7.75;5.07;;;-1.00;65.40;;;;;;5026745;28;20025;-63
2020/12/06 08:00:28;;;;;;;7.38;5.43;;;-1.10;65.40;;;;;;5030227;28;20060;-63
2020/12/06 08:02:58;;;;;;;7.55;5.40;;;-1.10;65.10;;;;;;5036621;28;20025;-63
2020/12/06 08:05:32;;;;;;;9.63;6.05;;;-1.10;65.40;;;;;;5036787;28;20314;-63
2020/12/06 08:08:12;;;;;;;7.28;5.00;;;-1.20;65.00;;;;;;5035874;28;20358;-63
2020/12/06 08:10:40;;;;;;;7.78;5.25;;;-1.20;65.20;;;;;;5037042;28;20469;-63
2020/12/06 08:13:10;;;;;;;10.35;5.40;;;-1.20;65.40;;;;;;5036899;28;20021;-62
2020/12/06 08:15:36;;;;;;;10.85;5.38;;;-1.20;64.80;;;;;;5036869;28;20037;-63
2020/12/06 08:18:10;;;;;;;7.22;4.60;;;-1.20;65.10;;;;;;5036463;28;20620;-63
2020/12/06 08:20:35;;;;;;;9.48;5.15;;;-1.20;65.10;;;;;;5036117;28;20079;-63
2020/12/06 08:23:01;;;;;;;10.50;5.35;;;-1.10;64.50;;;;;;5036910;28;20466;-63
2020/12/06 08:25:45;;;;;;;10.40;6.30;;;-1.10;63.50;;;;;;5036266;28;20018;-63
2020/12/06 08:28:12;;;;;;;8.45;4.80;;;-1.20;64.50;;;;;;5032655;28;20037;-63
2020/12/06 08:30:37;;;;;;;7.72;5.10;;;-1.20;64.50;;;;;;5036549;28;20025;-63
2020/12/06 08:33:04;;;;;;;6.78;4.88;;;-1.20;63.90;;;;;;5036144;28;20025;-63
2020/12/06 08:35:41;;;;;;;7.30;5.07;;;-1.20;64.70;;;;;;5036150;28;20513;-63
2020/12/06 08:38:24;;;;;;;9.82;5.45;;;-1.20;64.00;;;;;;5036230;28;20101;-63
2020/12/06 08:41:02;;;;;;;7.45;5.15;;;-1.20;64.30;;;;;;5035113;28;20060;-63
2020/12/06 08:44:01;;;;;;;6.55;5.32;;;-1.20;64.20;;;;;;5036230;28;20060;-62
2020/12/06 08:46:28;;;;;;;7.28;5.22;;;-1.20;64.40;;;;;;5013901;28;20029;-63
2020/12/06 08:48:55;;;;;;;8.55;5.13;;;-1.20;64.70;;;;;;5036520;28;20022;-62
2020/12/06 08:51:28;;;;;;;8.45;5.50;;;-1.10;64.40;;;;;;5036630;28;20022;-63
2020/12/06 08:53:54;;;;;;;13.07;6.20;;;-1.10;64.40;;;;;;5036567;28;20030;-63
2020/12/06 08:56:40;;;;;;;12.02;5.38;;;-1.10;64.20;;;;;;5036256;28;20079;-63
2020/12/06 08:59:16;;;;;;;8.40;5.13;;;-1.10;64.10;;;;;;5030321;28;20144;-63
2020/12/06 09:01:53;;;;;;;10.25;6.00;;;-1.00;64.20;;;;;;5036353;28;20029;-61
2020/12/06 09:04:20;;;;;;;8.00;5.40;;;-1.00;63.30;;;;;;5036260;28;20480;-63
2020/12/06 09:06:46;;;;;;;6.35;4.63;;;-1.00;63.70;;;;;;5036230;28;20037;-63
2020/12/06 09:09:12;;;;;;;8.75;4.82;;;-1.00;63.30;;;;;;5036303;28;20067;-63
2020/12/06 09:11:38;;;;;;;9.30;5.32;;;-1.00;63.40;;;;;;5034389;28;20372;-62
2020/12/06 09:14:04;;;;;;;7.35;5.18;;;-1.00;63.30;;;;;;5035470;28;20032;-63
2020/12/06 09:16:30;;;;;;;6.78;4.43;;;-1.00;63.20;;;;;;5035840;28;20370;-62
2020/12/06 09:18:56;;;;;;;10.23;5.35;;;-0.90;63.50;;;;;;5035932;28;20037;-63
2020/12/06 09:21:22;;;;;;;7.63;5.43;;;-0.90;63.20;;;;;;5035866;28;20021;-63
2020/12/06 09:23:48;;;;;;;6.88;4.82;;;-0.80;62.90;;;;;;5035854;28;20036;-64
2020/12/06 09:26:14;;;;;;;7.97;5.45;;;-0.90;62.90;;;;;;5035928;28;20391;-63
2020/12/06 09:28:40;;;;;;;7.15;4.72;;;-0.90;62.50;;;;;;5033927;28;20139;-63
2020/12/06 09:31:05;;;;;;;7.43;5.13;;;-0.90;62.70;;;;;;5034410;28;20037;-63
2020/12/06 09:33:31;;;;;;;6.28;4.22;;;-0.90;62.30;;;;;;5035604;28;20025;-63
2020/12/06 09:35:57;;;;;;;8.00;4.95;;;-0.80;62.80;;;;;;5021786;28;20021;-63
2020/12/06 09:38:23;;;;;;;9.98;5.03;;;-0.80;62.70;;;;;;5035622;28;20480;-63
2020/12/06 09:40:49;;;;;;;9.02;5.30;;;-0.80;62.50;;;;;;5035284;28;20096;-63
2020/12/06 09:43:15;;;;;;;10.55;6.38;;;-0.80;61.70;;;;;;5035094;28;20381;-63
2020/12/06 09:45:42;;;;;;;7.63;5.05;;;-0.80;62.20;;;;;;5035342;28;20032;-63
2020/12/06 09:48:08;;;;;;;8.23;4.75;;;-0.80;61.80;;;;;;5034944;28;20049;-63
2020/12/06 09:50:34;;;;;;;8.70;5.22;;;-0.80;62.60;;;;;;5021316;28;20104;-63
2020/12/06 09:53:00;;;;;;;7.38;5.03;;;-0.80;61.80;;;;;;5035316;28;20531;-63
2020/12/06 09:55:26;;;;;;;7.65;5.40;;;-0.80;62.00;;;;;;5033394;28;20034;-63
2020/12/06 09:57:52;;;;;;;6.75;4.60;;;-0.80;61.90;;;;;;5026539;28;20022;-63
2020/12/06 10:00:18;;;;;;;7.78;4.78;;;-0.80;62.10;;;;;;5035208;28;20022;-63
2020/12/06 10:02:44;;;;;;;8.05;4.35;;;-0.70;62.30;;;;;;5035129;28;20022;-63
2020/12/06 10:05:11;;;;;;;8.18;5.10;;;-0.60;62.00;;;;;;5035161;28;20457;-63
2020/12/06 10:07:37;;;;;;;9.50;5.15;;;-0.60;61.90;;;;;;5033598;28;20029;-63
2020/12/06 10:10:07;;;;;;;8.48;5.80;;;-0.60;61.90;;;;;;5035055;28;20021;-63
2020/12/06 10:12:32;;;;;;;7.85;5.43;;;-0.60;61.20;;;;;;5021691;28;20109;-64
2020/12/06 10:14:58;;;;;;;8.18;4.57;;;-0.60;61.10;;;;;;5034031;28;20509;-63
2020/12/06 10:17:24;;;;;;;7.40;4.45;;;-0.60;61.40;;;;;;5034851;28;20167;-63
2020/12/06 10:19:50;;;;;;;6.78;4.55;;;-0.60;61.60;;;;;;5034758;28;20092;-63
2020/12/06 10:22:16;;;;;;;7.88;5.00;;;-0.50;61.60;;;;;;5034292;28;20577;-63
2020/12/06 10:24:42;;;;;;;10.55;5.50;;;-0.50;61.40;;;;;;5034651;28;20358;-63
2020/12/06 10:27:07;;;;;;;6.60;4.50;;;-0.50;61.10;;;;;;5033646;28;20461;-63
2020/12/06 10:29:33;;;;;;;7.88;4.75;;;-0.50;61.10;;;;;;5034843;28;20036;-63
2020/12/06 10:32:00;;;;;;;8.57;5.35;;;-0.50;60.90;;;;;;5034416;28;20496;-63
2020/12/06 10:34:27;;;;;;;7.45;4.38;;;-0.50;61.20;;;;;;5034515;28;20132;-63
2020/12/06 10:36:56;;;;;;;8.68;4.75;;;-0.40;61.70;;;;;;5034644;28;20021;-63
2020/12/06 10:39:23;;;;;;;6.90;4.90;;;-0.40;61.40;;;;;;5034641;28;20100;-63
2020/12/06 10:41:54;;;;;;;5.93;4.60;;;-0.40;61.40;;;;;;5032850;28;20037;-63
2020/12/06 10:44:20;;;;;;;8.10;4.35;;;-0.30;61.10;;;;;;5033866;28;20017;-63
2020/12/06 10:46:47;;;;;;;6.85;4.22;;;-0.30;60.80;;;;;;5034704;28;20025;-63
2020/12/06 10:49:14;;;;;;;7.30;5.07;;;-0.30;60.60;;;;;;5034265;28;20025;-63
2020/12/06 10:51:41;;;;;;;5.97;4.57;;;-0.30;60.80;;;;;;5034334;28;20052;-63
2020/12/06 10:54:08;;;;;;;6.18;4.88;;;-0.30;60.50;;;;;;5034106;28;20112;-63
2020/12/06 10:56:35;;;;;;;7.07;4.85;;;-0.30;60.00;;;;;;5034230;28;20040;-63
2020/12/06 10:59:01;;;;;;;8.75;4.80;;;-0.30;60.20;;;;;;5033806;28;20032;-63
2020/12/06 11:01:28;;;;;;;6.55;4.78;;;-0.30;60.80;;;;;;5033924;28;20037;-63
2020/12/06 11:03:54;;;;;;;7.22;4.68;;;-0.30;60.10;;;;;;5034109;28;20469;-63
2020/12/06 11:06:21;;;;;;;8.45;4.97;;;-0.30;60.70;;;;;;5033181;28;20022;-63
2020/12/06 11:08:47;;;;;;;6.65;4.93;;;-0.20;60.90;;;;;;5034043;28;20026;-63
2020/12/06 11:11:14;;;;;;;7.97;4.93;;;-0.20;60.10;;;;;;5023344;28;20032;-63
2020/12/06 11:13:40;;;;;;;6.00;4.70;;;-0.20;60.70;;;;;;5034069;28;20037;-63
2020/12/06 11:16:06;;;;;;;6.07;4.30;;;-0.10;61.20;;;;;;5033608;28;20038;-63
2020/12/06 11:18:32;;;;;;;7.00;4.88;;;-0.10;60.30;;;;;;5032459;28;20029;-63
2020/12/06 11:20:58;;;;;;;6.22;4.38;;;0.00;60.30;;;;;;5033656;28;20037;-62
2020/12/06 11:23:24;;;;;;;5.78;4.30;;;0.00;60.30;;;;;;5019721;28;20025;-62
2020/12/06 11:25:50;;;;;;;6.22;4.45;;;0.00;59.90;;;;;;5033416;28;20025;-63
2020/12/06 11:28:15;;;;;;;8.15;4.72;;;0.00;60.40;;;;;;5033327;28;20045;-63
2020/12/06 11:30:41;;;;;;;7.97;4.70;;;0.10;60.30;;;;;;5032974;28;20056;-63
2020/12/06 11:33:07;;;;;;;6.38;4.57;;;0.10;59.30;;;;;;5038676;28;20021;-63
2020/12/06 11:35:33;;;;;;;6.28;4.57;;;0.00;60.10;;;;;;5035861;28;20079;-63
2020/12/06 11:37:58;;;;;;;6.15;4.55;;;0.00;60.00;;;;;;5036704;28;20029;-63
2020/12/06 11:40:24;;;;;;;8.38;5.13;;;0.00;60.30;;;;;;5031586;28;20527;-62
2020/12/06 11:42:50;;;;;;;6.60;4.45;;;0.10;60.60;;;;;;5033012;28;20027;-63
2020/12/06 11:45:15;;;;;;;6.55;4.30;;;0.10;61.00;;;;;;5031893;28;20091;-63
2020/12/06 11:47:41;;;;;;;7.07;4.32;;;0.20;61.30;;;;;;5033291;28;20071;-63
2020/12/06 11:50:07;;;;;;;6.53;3.88;;;0.30;61.40;;;;;;5034366;28;20559;-63
2020/12/06 11:52:33;;;;;;;5.47;3.90;;;0.40;61.50;;;;;;5032020;28;20025;-63
2020/12/06 11:54:59;;;;;;;7.20;4.25;;;0.50;61.00;;;;;;5033479;28;20109;-63
2020/12/06 11:57:24;;;;;;;6.45;4.50;;;0.50;60.90;;;;;;5032085;28;20416;-63
2020/12/06 11:59:50;;;;;;;5.70;4.40;;;0.50;60.10;;;;;;5032782;28;20517;-63
2020/12/06 12:02:16;;;;;;;7.70;4.32;;;0.50;59.90;;;;;;5031943;28;20381;-63
2020/12/06 12:04:41;;;;;;;8.10;4.68;;;0.40;59.70;;;;;;5033142;28;20022;-63
2020/12/06 12:07:07;;;;;;;6.90;4.63;;;0.40;60.50;;;;;;5033222;28;20481;-63
2020/12/06 12:09:33;;;;;;;5.88;4.25;;;0.50;60.90;;;;;;5032975;28;20071;-63
2020/12/06 12:11:58;;;;;;;7.95;4.35;;;0.50;60.80;;;;;;5032634;28;20098;-63
2020/12/06 12:14:24;;;;;;;6.28;4.38;;;0.60;61.00;;;;;;5032989;28;20038;-62
2020/12/06 12:16:50;;;;;;;5.97;4.43;;;0.60;60.80;;;;;;5033063;28;20025;-63
2020/12/06 12:19:16;;;;;;;4.22;3.67;;;0.60;61.00;;;;;;5032957;28;20216;-63
2020/12/06 12:21:42;;;;;;;5.78;4.10;;;0.70;60.70;;;;;;5031533;28;20492;-63
2020/12/06 12:24:07;;;;;;;5.53;3.65;;;0.70;60.70;;;;;;5033113;28;20092;-63
2020/12/06 12:26:33;;;;;;;7.15;4.20;;;0.70;60.80;;;;;;5032609;28;20072;-63
2020/12/06 12:28:59;;;;;;;6.68;4.88;;;0.80;60.60;;;;;;5032928;28;20087;-63
2020/12/06 12:31:25;;;;;;;5.15;4.13;;;0.80;60.70;;;;;;5032855;28;20060;-63
2020/12/06 12:33:50;;;;;;;7.57;5.15;;;0.80;60.80;;;;;;5032746;28;20104;-63
2020/12/06 12:36:16;;;;;;;6.43;4.50;;;0.90;61.10;;;;;;5032857;28;20021;-62
2020/12/06 12:38:42;;;;;;;5.53;3.95;;;0.90;60.90;;;;;;5032865;28;20072;-63
2020/12/06 12:41:08;;;;;;;5.05;3.80;;;1.00;60.90;;;;;;5032515;28;20026;-63
2020/12/06 12:43:34;;;;;;;6.32;4.13;;;1.00;60.90;;;;;;5020395;28;20022;-63
2020/12/06 12:46:00;;;;;;;6.15;4.50;;;1.00;60.50;;;;;;5033038;28;20484;-63
2020/12/06 12:48:25;;;;;;;8.07;4.72;;;1.00;60.30;;;;;;5036530;28;20026;-61